createdAt,value
2018-12-17T00:03:02.574Z,96419.73
2018-12-17T00:05:34.530Z,96428.16
2018-12-17T00:08:06.437Z,96429.78
2018-12-17T00:10:36.438Z,96428.27
2018-12-17T00:13:06.416Z,96431.39
2018-12-17T00:15:38.285Z,96425.80
2018-12-17T00:18:08.269Z,96428.09
2018-12-17T00:20:38.252Z,96432.01
2018-12-17T00:23:08.171Z,96439.14
2018-12-17T00:25:40.020Z,96435.47
2018-12-17T00:28:09.925Z,96434.37
2018-12-17T00:30:39.898Z,96430.73
2018-12-17T00:33:09.932Z,96432.31
2018-12-17T00:35:39.915Z,96439.00
2018-12-17T00:38:09.984Z,96437.70
2018-12-17T00:40:39.928Z,96433.52
2018-12-17T00:43:10.025Z,96435.91
2018-12-17T00:45:40.064Z,96434.06
2018-12-17T00:48:10.103Z,96435.95
2018-12-17T00:50:40.973Z,96435.58
2018-12-17T00:53:10.888Z,96437.49
2018-12-17T00:55:40.852Z,96438.77
2018-12-17T00:58:15.103Z,96428.72
2018-12-17T01:00:42.992Z,96434.61
2018-12-17T01:03:12.905Z,96424.77
2018-12-17T01:05:42.953Z,96431.25
2018-12-17T01:08:12.869Z,96428.68
2018-12-17T01:10:42.785Z,96436.13
2018-12-17T01:13:12.732Z,96439.92
2018-12-17T01:15:42.655Z,96446.41
2018-12-17T01:18:12.730Z,96447.02
2018-12-17T01:20:42.641Z,96449.77
2018-12-17T01:23:12.577Z,96455.39
2018-12-17T01:25:43.493Z,96463.86
2018-12-17T01:28:13.408Z,96467.80
2018-12-17T01:30:43.314Z,96468.14
2018-12-17T01:33:13.237Z,96473.28
2018-12-17T01:35:43.203Z,96467.53
2018-12-17T01:38:13.209Z,96478.57
2018-12-17T01:40:43.172Z,96481.23
2018-12-17T01:43:14.088Z,96482.84
2018-12-17T01:45:44.057Z,96486.22
2018-12-17T01:48:14.165Z,96486.90
2018-12-17T01:50:44.068Z,96491.03
2018-12-17T01:53:14.031Z,96496.58
2018-12-17T01:55:43.937Z,96493.63
2018-12-17T01:58:13.863Z,96500.59
2018-12-17T02:00:43.836Z,96496.00
2018-12-17T02:03:13.749Z,96493.77
2018-12-17T02:05:43.777Z,96492.64
2018-12-17T02:08:13.770Z,96493.46
2018-12-17T02:10:43.784Z,96502.86
2018-12-17T02:13:13.708Z,96502.69
2018-12-17T02:15:43.607Z,96503.14
2018-12-17T02:18:13.564Z,96507.08
2018-12-17T02:20:43.490Z,96504.88
2018-12-17T02:23:13.410Z,96509.52
2018-12-17T02:25:43.385Z,96511.95
2018-12-17T02:28:13.353Z,96513.62
2018-12-17T02:30:43.276Z,96509.52
2018-12-17T02:33:13.180Z,96510.96
2018-12-17T02:35:43.098Z,96521.93
2018-12-17T02:38:13.264Z,96512.98
2018-12-17T02:40:43.158Z,96520.05
2018-12-17T02:43:13.501Z,96523.77
2018-12-17T02:45:43.410Z,96519.30
2018-12-17T02:48:13.571Z,96523.28
2018-12-17T02:50:43.470Z,96521.70
2018-12-17T02:53:13.416Z,96535.62
2018-12-17T02:55:43.380Z,96540.34
2018-12-17T02:58:13.297Z,96536.92
2018-12-17T03:00:43.311Z,96538.11
2018-12-17T03:03:13.258Z,96548.05
2018-12-17T03:05:43.245Z,96545.95
2018-12-17T03:08:13.222Z,96547.97
2018-12-17T03:10:43.256Z,96550.88
2018-12-17T03:13:13.340Z,96551.81
2018-12-17T03:15:43.260Z,96551.62
2018-12-17T03:18:13.369Z,96553.98
2018-12-17T03:20:43.344Z,96554.57
2018-12-17T03:23:13.251Z,96560.07
2018-12-17T03:25:43.160Z,96561.34
2018-12-17T03:28:13.065Z,96558.98
2018-12-17T03:30:42.990Z,96566.50
2018-12-17T03:33:12.922Z,96563.24
2018-12-17T03:35:42.908Z,96564.16
2018-12-17T03:38:12.804Z,96564.94
2018-12-17T03:40:42.717Z,96568.05
2018-12-17T03:43:12.700Z,96569.02
2018-12-17T03:45:42.766Z,96568.73
2018-12-17T03:48:12.796Z,96572.98
2018-12-17T03:50:42.943Z,96573.95
2018-12-17T03:53:13.016Z,96573.00
2018-12-17T03:55:42.973Z,96572.70
2018-12-17T03:58:13.000Z,96572.58
2018-12-17T04:00:42.919Z,96575.20
2018-12-17T04:03:12.846Z,96577.63
2018-12-17T04:05:42.806Z,96582.29
2018-12-17T04:08:12.739Z,96586.20
2018-12-17T04:10:42.721Z,96587.06
2018-12-17T04:13:12.625Z,96586.72
2018-12-17T04:15:43.119Z,96587.68
2018-12-17T04:18:13.022Z,96595.48
2018-12-17T04:20:43.020Z,96598.12
2018-12-17T04:23:12.940Z,96600.23
2018-12-17T04:25:43.948Z,96599.92
2018-12-17T04:28:13.848Z,96602.51
2018-12-17T04:30:43.763Z,96602.05
2018-12-17T04:33:13.788Z,96604.80
2018-12-17T04:35:43.753Z,96605.12
2018-12-17T04:38:13.767Z,96615.53
2018-12-17T04:40:43.684Z,96620.44
2018-12-17T04:43:13.612Z,96621.23
2018-12-17T04:45:43.541Z,96628.70
2018-12-17T04:48:13.537Z,96639.75
2018-12-17T04:50:43.521Z,96638.47
2018-12-17T04:53:13.522Z,96638.14
2018-12-17T04:55:43.452Z,96645.14
2018-12-17T04:58:13.566Z,96651.96
2018-12-17T05:00:43.548Z,96652.77
2018-12-17T05:03:13.441Z,96661.06
2018-12-17T05:05:43.378Z,96665.44
2018-12-17T05:08:13.277Z,96663.83
2018-12-17T05:10:43.320Z,96674.89
2018-12-17T05:13:13.292Z,96674.55
2018-12-17T05:15:43.212Z,96674.39
2018-12-17T05:18:13.125Z,96679.75
2018-12-17T05:20:43.056Z,96682.86
2018-12-17T05:23:13.045Z,96683.18
2018-12-17T05:25:42.948Z,96693.27
2018-12-17T05:28:12.881Z,96695.05
2018-12-17T05:30:42.839Z,96703.83
2018-12-17T05:33:13.157Z,96705.13
2018-12-17T05:35:43.138Z,96703.99
2018-12-17T05:38:13.125Z,96706.75
2018-12-17T05:40:43.063Z,96708.87
2018-12-17T05:43:13.134Z,96711.95
2018-12-17T05:45:43.025Z,96703.17
2018-12-17T05:48:12.937Z,96711.48
2018-12-17T05:50:42.892Z,96719.92
2018-12-17T05:53:12.791Z,96721.73
2018-12-17T05:55:44.226Z,96723.34
2018-12-17T05:58:14.411Z,96727.88
2018-12-17T06:00:44.327Z,96733.59
2018-12-17T06:03:14.240Z,96732.93
2018-12-17T06:05:44.229Z,96724.48
2018-12-17T06:08:14.203Z,96731.78
2018-12-17T06:10:44.100Z,96737.50
2018-12-17T06:13:14.031Z,96746.45
2018-12-17T06:15:43.924Z,96750.67
2018-12-17T06:18:13.829Z,96755.88
2018-12-17T06:20:44.093Z,96767.43
2018-12-17T06:23:14.004Z,96760.09
2018-12-17T06:25:44.112Z,96763.02
2018-12-17T06:28:14.026Z,96764.83
2018-12-17T06:30:43.980Z,96761.08
2018-12-17T06:33:15.804Z,96763.36
2018-12-17T06:35:45.816Z,96765.14
2018-12-17T06:38:15.837Z,96772.47
2018-12-17T06:40:45.733Z,96771.78
2018-12-17T06:43:15.640Z,96778.47
2018-12-17T06:45:45.609Z,96786.27
2018-12-17T06:48:17.293Z,96788.73
2018-12-17T06:50:47.588Z,96790.67
2018-12-17T06:53:17.595Z,96791.98
2018-12-17T06:55:47.494Z,96790.17
2018-12-17T06:58:17.673Z,96798.13
2018-12-17T07:00:47.900Z,96797.98
2018-12-17T07:03:17.813Z,96802.03
2018-12-17T07:05:47.826Z,96803.18
2018-12-17T07:08:18.965Z,96810.68
2018-12-17T07:10:48.958Z,96818.16
2018-12-17T07:13:19.032Z,96826.44
2018-12-17T07:15:49.019Z,96825.15
2018-12-17T07:18:19.008Z,96824.81
2018-12-17T07:20:48.980Z,96832.80
2018-12-17T07:23:19.032Z,96831.83
2018-12-17T07:25:49.091Z,96839.94
2018-12-17T07:28:19.120Z,96839.48
2018-12-17T07:30:49.164Z,96837.52
2018-12-17T07:33:19.103Z,96840.75
2018-12-17T07:35:49.136Z,96843.67
2018-12-17T07:38:19.101Z,96853.59
2018-12-17T07:40:49.216Z,96860.25
2018-12-17T07:43:19.217Z,96858.33
2018-12-17T07:45:49.120Z,96859.94
2018-12-17T07:48:19.109Z,96858.51
2018-12-17T07:50:49.276Z,96865.20
2018-12-17T07:53:19.189Z,96869.57
2018-12-17T07:55:49.179Z,96873.99
2018-12-17T07:58:21.049Z,96876.08
2018-12-17T08:00:51.181Z,96884.05
2018-12-17T08:03:21.309Z,96897.92
2018-12-17T08:05:51.289Z,96898.25
2018-12-17T08:08:21.205Z,96907.03
2018-12-17T08:10:51.402Z,96911.28
2018-12-17T08:13:21.988Z,96916.48
2018-12-17T08:15:51.897Z,96915.85
2018-12-17T08:18:24.473Z,96915.02
2018-12-17T08:20:54.603Z,96927.05
2018-12-17T08:23:24.646Z,96926.75
2018-12-17T08:26:02.136Z,96924.14
2018-12-17T08:31:31.528Z,96937.17
2018-12-17T08:34:01.532Z,96948.56
2018-12-17T08:36:31.464Z,96945.48
2018-12-17T08:39:01.399Z,96947.11
2018-12-17T08:41:32.456Z,96950.20
2018-12-17T08:44:02.429Z,96951.03
2018-12-17T08:46:32.331Z,96956.06
2018-12-17T08:49:02.299Z,96963.91
2018-12-17T08:51:32.288Z,96961.77
2018-12-17T08:54:02.214Z,96960.16
2018-12-17T08:56:32.201Z,96958.70
2018-12-17T08:59:02.116Z,96970.91
2018-12-17T09:01:32.015Z,96975.36
2018-12-17T09:04:01.973Z,96972.91
2018-12-17T09:06:31.985Z,96974.53
2018-12-17T09:09:01.896Z,96981.55
2018-12-17T09:11:31.804Z,96981.53
2018-12-17T09:14:01.809Z,96981.16
2018-12-17T09:16:31.724Z,96985.71
2018-12-17T09:19:01.637Z,96983.23
2018-12-17T09:21:31.675Z,96986.98
2018-12-17T09:24:01.645Z,96989.48
2018-12-17T09:26:31.544Z,96998.63
2018-12-17T09:29:01.537Z,96999.48
2018-12-17T09:31:32.629Z,96996.05
2018-12-17T09:34:02.618Z,97000.48
2018-12-17T09:36:32.520Z,97004.23
2018-12-17T09:41:47.466Z,97009.82
2018-12-17T09:44:17.440Z,97007.70
2018-12-17T09:46:47.428Z,97005.73
2018-12-17T09:49:17.581Z,97014.09
2018-12-17T09:51:47.775Z,97011.81
2018-12-17T09:54:17.836Z,97021.75
2018-12-17T09:56:47.765Z,97023.83
2018-12-17T09:59:17.678Z,97021.19
2018-12-17T10:01:51.076Z,97026.44
2018-12-17T10:04:21.308Z,97024.80
2018-12-17T10:06:51.208Z,97029.40
2018-12-17T10:09:21.111Z,97028.37
2018-12-17T10:11:51.041Z,97019.83
2018-12-17T10:14:21.097Z,97019.55
2018-12-17T10:16:50.996Z,97009.73
2018-12-17T10:19:20.917Z,97006.59
2018-12-17T10:21:50.869Z,97003.44
2018-12-17T10:24:20.797Z,97006.86
2018-12-17T10:26:50.708Z,97011.05
2018-12-17T10:29:20.625Z,97011.09
2018-12-17T10:31:50.515Z,97014.83
2018-12-17T10:34:20.449Z,97015.69
2018-12-17T10:36:50.347Z,97005.63
2018-12-17T10:39:20.468Z,97011.13
2018-12-17T10:41:50.920Z,97008.49
2018-12-17T10:44:22.803Z,97014.72
2018-12-17T10:46:52.913Z,97008.63
2018-12-17T10:49:23.834Z,97003.31
2018-12-17T10:51:53.745Z,97003.52
2018-12-17T10:54:23.917Z,97006.22
2018-12-17T10:56:53.982Z,97008.83
2018-12-17T10:59:23.907Z,97007.11
2018-12-17T11:05:20.968Z,97002.59
2018-12-17T11:07:50.956Z,97003.77
2018-12-17T11:10:20.929Z,97005.34
2018-12-17T11:12:51.005Z,96997.97
2018-12-17T11:15:20.909Z,97006.97
2018-12-17T11:17:50.909Z,96998.03
2018-12-17T11:20:20.891Z,97004.49
2018-12-17T11:22:50.824Z,97006.05
2018-12-17T11:25:20.729Z,97007.76
2018-12-17T11:27:50.749Z,97012.22
2018-12-17T11:30:20.749Z,97002.61
2018-12-17T11:32:50.672Z,97005.71
2018-12-17T11:35:20.612Z,97004.49
2018-12-17T11:37:50.522Z,97001.12
2018-12-17T11:40:20.617Z,97007.75
2018-12-17T11:42:50.658Z,97009.76
2018-12-17T11:45:20.797Z,97010.02
2018-12-17T11:47:50.754Z,97001.85
2018-12-17T11:50:20.761Z,97001.90
2018-12-17T11:52:50.849Z,97000.16
2018-12-17T11:55:20.856Z,97004.22
2018-12-17T11:58:10.566Z,97006.58
2018-12-17T12:03:40.328Z,97014.59
2018-12-17T12:06:13.825Z,97013.45
2018-12-17T12:08:42.624Z,97013.50
2018-12-17T12:11:12.718Z,97014.98
2018-12-17T12:13:42.636Z,97023.72
2018-12-17T12:16:12.558Z,97015.33
2018-12-17T12:18:42.485Z,97025.69
2018-12-17T12:21:12.535Z,97023.50
2018-12-17T12:23:42.588Z,97025.86
2018-12-17T12:26:13.650Z,97028.56
2018-12-17T12:28:43.559Z,97029.52
2018-12-17T12:31:13.520Z,97030.06
2018-12-17T12:33:43.500Z,97029.58
2018-12-17T12:36:13.462Z,97032.64
2018-12-17T12:38:43.737Z,97031.23
2018-12-17T12:41:13.736Z,97028.20
2018-12-17T12:43:46.607Z,97034.63
2018-12-17T12:46:16.589Z,97033.75
2018-12-17T12:48:46.517Z,97036.16
2018-12-17T12:51:16.593Z,97041.09
2018-12-17T12:53:46.669Z,97051.39
2018-12-17T12:56:16.612Z,97053.33
2018-12-17T12:58:46.536Z,97053.06
2018-12-17T13:01:16.520Z,97068.66
2018-12-17T13:03:46.544Z,97065.24
2018-12-17T13:06:16.542Z,97071.00
2018-12-17T13:08:46.534Z,97076.25
2018-12-17T13:11:16.468Z,97080.23
2018-12-17T13:13:46.599Z,97084.34
2018-12-17T13:16:16.584Z,97084.61
2018-12-17T13:18:46.509Z,97091.94
2018-12-17T13:21:16.561Z,97098.20
2018-12-17T13:23:46.847Z,97093.34
2018-12-17T13:26:16.819Z,97093.78
2018-12-17T13:28:46.791Z,97098.54
2018-12-17T13:31:16.709Z,97094.47
2018-12-17T13:33:46.728Z,97104.53
2018-12-17T13:36:16.948Z,97109.28
2018-12-17T13:38:46.893Z,97110.47
2018-12-17T13:41:17.795Z,97107.63
2018-12-17T13:43:47.900Z,97113.05
2018-12-17T13:46:17.845Z,97120.66
2018-12-17T13:48:47.976Z,97120.44
2018-12-17T13:51:23.616Z,97121.95
2018-12-17T13:56:40.914Z,97140.36
2018-12-17T13:59:11.039Z,97148.22
2018-12-17T14:01:40.939Z,97152.11
2018-12-17T14:04:10.860Z,97150.41
2018-12-17T14:06:41.165Z,97144.80
2018-12-17T14:09:11.260Z,97149.73
2018-12-17T14:11:41.291Z,97146.41
2018-12-17T14:14:11.581Z,97162.19
2018-12-17T14:16:46.996Z,97167.17
2018-12-17T14:22:17.867Z,97181.02
2018-12-17T14:24:47.879Z,97187.53
2018-12-17T14:27:17.788Z,97197.53
2018-12-17T14:29:47.718Z,97198.86
2018-12-17T14:32:17.625Z,97208.25
2018-12-17T14:34:47.548Z,97206.77
2018-12-17T14:37:18.572Z,97209.90
2018-12-17T14:39:48.497Z,97221.89
2018-12-17T14:42:18.512Z,97226.00
2018-12-17T14:44:48.528Z,97227.56
2018-12-17T14:47:18.423Z,97228.26
2018-12-17T14:49:49.365Z,97235.84
2018-12-17T14:52:19.273Z,97238.38
2018-12-17T14:54:49.336Z,97248.03
2018-12-17T14:57:19.473Z,97254.21
2018-12-17T14:59:49.467Z,97259.83
2018-12-17T15:02:19.453Z,97263.50
2018-12-17T15:04:49.615Z,97269.99
2018-12-17T15:07:19.730Z,97272.29
2018-12-17T15:09:49.752Z,97282.89
2018-12-17T15:12:19.745Z,97287.94
2018-12-17T15:14:49.758Z,97284.03
2018-12-17T15:17:19.960Z,97291.38
2018-12-17T15:19:50.112Z,97293.38
2018-12-17T15:22:20.016Z,97297.16
2018-12-17T15:24:49.944Z,97296.45
2018-12-17T15:27:19.907Z,97301.38
2018-12-17T15:29:49.913Z,97302.37
2018-12-17T15:32:19.889Z,97305.67
2018-12-17T15:34:50.121Z,97310.52
2018-12-17T15:37:20.423Z,97315.16
2018-12-17T15:39:50.356Z,97316.73
2018-12-17T15:42:21.947Z,97311.60
2018-12-17T15:44:52.154Z,97307.22
2018-12-17T15:47:22.136Z,97313.02
2018-12-17T15:49:52.069Z,97313.66
2018-12-17T15:52:22.043Z,97300.86
2018-12-17T15:54:52.040Z,97306.88
2018-12-17T15:57:22.005Z,97307.53
2018-12-17T15:59:51.954Z,97307.22
2018-12-17T16:02:21.924Z,97311.46
2018-12-17T16:04:52.446Z,97306.88
2018-12-17T16:07:22.376Z,97314.05
2018-12-17T16:12:39.736Z,97317.02
2018-12-17T16:15:09.876Z,97325.16
2018-12-17T16:17:39.876Z,97327.44
2018-12-17T16:20:10.037Z,97330.55
2018-12-17T16:22:40.013Z,97336.95
2018-12-17T16:25:10.157Z,97341.55
2018-12-17T16:27:40.436Z,97352.08
2018-12-17T16:30:12.132Z,97355.35
2018-12-17T16:32:42.154Z,97368.45
2018-12-17T16:35:12.156Z,97371.48
2018-12-17T16:37:42.149Z,97367.52
2018-12-17T16:40:12.309Z,97364.55
2018-12-17T16:42:42.216Z,97369.52
2018-12-17T16:45:12.554Z,97368.61
2018-12-17T16:47:42.761Z,97374.48
2018-12-17T16:50:14.003Z,97368.06
2018-12-17T16:52:43.924Z,97370.41
2018-12-17T16:55:14.184Z,97377.73
2018-12-17T16:57:44.093Z,97381.85
2018-12-17T17:00:14.288Z,97385.36
2018-12-17T17:02:44.200Z,97385.02
2018-12-17T17:05:14.209Z,97390.12
2018-12-17T17:07:44.120Z,97390.41
2018-12-17T17:10:14.162Z,97395.61
2018-12-17T17:12:47.876Z,97399.08
2018-12-17T17:15:18.105Z,97399.91
2018-12-17T17:17:48.081Z,97406.57
2018-12-17T17:20:18.072Z,97418.34
2018-12-17T17:22:48.049Z,97426.44
2018-12-17T17:25:17.972Z,97424.82
2018-12-17T17:27:48.248Z,97428.75
2018-12-17T17:30:18.326Z,97428.59
2018-12-17T17:32:48.237Z,97419.41
2018-12-17T17:35:18.212Z,97426.77
2018-12-17T17:37:48.376Z,97429.70
2018-12-17T17:40:18.345Z,97430.30
2018-12-17T17:42:48.377Z,97429.38
2018-12-17T17:45:18.456Z,97425.84
2018-12-17T17:47:48.469Z,97429.27
2018-12-17T17:50:18.414Z,97440.66
2018-12-17T17:52:48.413Z,97439.02
2018-12-17T17:55:18.330Z,97437.58
2018-12-17T17:57:48.243Z,97441.19
2018-12-17T18:00:18.290Z,97437.10
2018-12-17T18:02:48.179Z,97447.36
2018-12-17T18:05:18.305Z,97447.73
2018-12-17T18:07:48.205Z,97449.20
2018-12-17T18:10:18.183Z,97445.80
2018-12-17T18:12:48.104Z,97446.75
2018-12-17T18:15:18.178Z,97454.44
2018-12-17T18:17:48.071Z,97457.11
2018-12-17T18:20:18.219Z,97462.47
2018-12-17T18:22:48.212Z,97461.17
2018-12-17T18:25:18.310Z,97467.22
2018-12-17T18:27:49.939Z,97470.65
2018-12-17T18:30:20.211Z,97479.36
2018-12-17T18:32:51.235Z,97479.34
2018-12-17T18:35:21.503Z,97478.17
2018-12-17T18:37:52.798Z,97484.25
2018-12-17T18:40:22.794Z,97483.24
2018-12-17T18:42:52.789Z,97488.97
2018-12-17T18:45:22.903Z,97500.75
2018-12-17T18:47:52.840Z,97501.77
2018-12-17T18:50:22.951Z,97515.02
2018-12-17T18:52:52.889Z,97520.42
2018-12-17T18:55:22.897Z,97525.48
2018-12-17T18:57:52.813Z,97527.80
2018-12-17T19:00:22.767Z,97534.33
2018-12-17T19:02:52.772Z,97531.22
2018-12-17T19:05:22.756Z,97539.23
2018-12-17T19:07:53.152Z,97539.24
2018-12-17T19:13:16.737Z,97551.00
2018-12-17T19:15:48.277Z,97551.82
2018-12-17T19:18:18.268Z,97552.98
2018-12-17T19:20:48.210Z,97560.36
2018-12-17T19:23:18.216Z,97554.97
2018-12-17T19:25:48.159Z,97556.25
2018-12-17T19:28:18.144Z,97556.91
2018-12-17T19:30:48.108Z,97558.89
2018-12-17T19:33:18.072Z,97557.39
2018-12-17T19:35:48.101Z,97559.53
2018-12-17T19:38:18.000Z,97572.47
2018-12-17T19:40:47.942Z,97570.02
2018-12-17T19:43:17.966Z,97562.16
2018-12-17T19:45:47.966Z,97554.30
2018-12-17T19:48:18.398Z,97564.30
2018-12-17T19:50:48.420Z,97557.91
2018-12-17T19:53:19.376Z,97564.30
2018-12-17T19:55:49.368Z,97559.86
2018-12-17T19:58:19.757Z,97556.44
2018-12-17T20:00:49.724Z,97559.38
2018-12-17T20:03:19.869Z,97559.70
2018-12-17T20:05:49.799Z,97558.55
2018-12-17T20:08:19.701Z,97561.33
2018-12-17T20:10:49.694Z,97569.03
2018-12-17T20:13:19.800Z,97565.77
2018-12-17T20:15:49.820Z,97565.61
2018-12-17T20:18:19.794Z,97564.94
2018-12-17T20:20:49.828Z,97562.64
2018-12-17T20:23:19.874Z,97569.19
2018-12-17T20:25:51.334Z,97570.34
2018-12-17T20:28:21.365Z,97577.04
2018-12-17T20:30:51.472Z,97580.33
2018-12-17T20:33:21.498Z,97587.67
2018-12-17T20:35:51.641Z,97580.64
2018-12-17T20:38:29.029Z,97588.19
2018-12-17T20:40:59.024Z,97590.79
2018-12-17T20:43:30.317Z,97593.73
2018-12-17T20:46:00.340Z,97593.53
2018-12-17T20:48:30.356Z,97597.48
2018-12-17T20:51:00.392Z,97601.42
2018-12-17T20:53:31.723Z,97603.05
2018-12-17T20:56:01.642Z,97612.69
2018-12-17T20:58:32.595Z,97611.23
2018-12-17T21:01:02.592Z,97614.52
2018-12-17T21:03:32.553Z,97618.77
2018-12-17T21:06:02.484Z,97617.13
2018-12-17T21:08:32.440Z,97620.73
2018-12-17T21:11:03.409Z,97620.39
2018-12-17T21:13:33.375Z,97619.73
2018-12-17T21:16:03.332Z,97624.66
2018-12-17T21:18:33.255Z,97621.84
2018-12-17T21:21:03.216Z,97623.82
2018-12-17T21:23:33.499Z,97620.38
2018-12-17T21:26:03.447Z,97622.52
2018-12-17T21:28:33.555Z,97623.16
2018-12-17T21:31:03.561Z,97621.80
2018-12-17T21:33:33.641Z,97619.38
2018-12-17T21:36:03.704Z,97634.40
2018-12-17T21:38:33.624Z,97629.17
2018-12-17T21:41:03.588Z,97629.83
2018-12-17T21:43:36.190Z,97634.39
2018-12-17T21:46:05.625Z,97644.22
2018-12-17T21:48:35.833Z,97639.13
2018-12-17T21:51:05.961Z,97635.97
2018-12-17T21:53:35.889Z,97638.96
2018-12-17T21:56:05.913Z,97636.82
2018-12-17T21:58:36.049Z,97642.39
2018-12-17T22:01:05.980Z,97649.45
2018-12-17T22:03:35.969Z,97653.37
2018-12-17T22:06:06.013Z,97651.98
2018-12-17T22:08:35.977Z,97658.05
2018-12-17T22:11:05.867Z,97647.59
2018-12-17T22:13:35.788Z,97644.50
2018-12-17T22:16:05.928Z,97655.45
2018-12-17T22:18:35.935Z,97649.59
2018-12-17T22:21:05.980Z,97650.37
2018-12-17T22:23:36.216Z,97651.38
2018-12-17T22:26:06.427Z,97650.89
2018-12-17T22:28:36.341Z,97650.66
2018-12-17T22:31:06.304Z,97648.58
2018-12-17T22:33:36.228Z,97655.98
2018-12-17T22:36:06.232Z,97656.16
2018-12-17T22:38:36.157Z,97659.14
2018-12-17T22:41:06.194Z,97656.16
2018-12-17T22:43:36.108Z,97650.56
2018-12-17T22:46:06.152Z,97645.83
2018-12-17T22:48:36.077Z,97641.77
2018-12-17T22:51:06.142Z,97643.54
2018-12-17T22:53:36.072Z,97638.30
2018-12-17T22:56:06.056Z,97639.89
2018-12-17T22:58:42.130Z,97641.35
2018-12-17T23:01:08.136Z,97635.34
2018-12-17T23:03:40.653Z,97636.48
2018-12-17T23:06:10.548Z,97638.92
2018-12-17T23:11:59.736Z,97638.44
2018-12-17T23:14:46.973Z,97639.08
2018-12-17T23:17:34.180Z,97644.98
2018-12-17T23:20:04.092Z,97643.67
2018-12-17T23:22:36.777Z,97642.98
2018-12-17T23:25:07.532Z,97649.55
2018-12-17T23:27:37.742Z,97642.69
2018-12-17T23:30:09.104Z,97637.45
2018-12-17T23:32:39.040Z,97644.48
2018-12-17T23:35:10.148Z,97644.33
2018-12-17T23:37:40.085Z,97648.13
2018-12-17T23:40:10.366Z,97643.80
2018-12-17T23:42:40.446Z,97639.11
2018-12-17T23:45:10.528Z,97634.84
2018-12-17T23:47:40.605Z,97634.52
2018-12-17T23:50:10.707Z,97634.81
2018-12-17T23:52:40.632Z,97626.81
2018-12-17T23:55:10.611Z,97628.94
2018-12-17T23:57:40.561Z,97625.04
